Sao Simao, Brazil
Current Conditions -  °F | °C
As of 3:00 PM on Saturday 25 Oct 2014 (Local Time) from SBRP Reporting Station
Light Rain Light Rain  
Wind Chill: 72°   Ceiling: 10000
Heat Index: 72°   Visibility: 2.5mi
Dew Point: 64°   Wind: 0mph
Humidity: 78%   Direction: NA
Pressure: 30"   Gusts: NA
Location:  21.48°S, 47.55°W
Report Text: SBRP 251700Z 00000KT 4000 -RA SCT030 OVC100 22/18 Q1016
Loading
Personal Weather Stations






























Interactive Weather Map
Tropical Storm Tracking
New forecast layout! Learn more

10-Day Weather Forecast

Advertisements
Track Severe Weather on mobile